PAMY

Details ICAO PAMY (MYU)
Name MEKORYUK
Region USA (Alaska)
Timezone America/Nome (UTC-9.0)
Plans Departing 0
Arriving 1
Stats Elevation 48 ft / 15 m (AMSL)
Location 60.371420° -166.270609°
Runways 1
Magnetic Variation 9.463° E
Sunrise 2017-12-11 20:02:56 UTC / 2017-12-11 11:02:56 Local
Sunset 2017-12-12 01:57:04 UTC / 2017-12-11 16:57:04 Local
Advertisement - Login to hide

Runways

ID Width Length Bearing (true) Bearing (mag) Surface Threshold Offset Overrun Length
05 75 ft / 23 m 3,061 ft / 933 m 66.54° 57.08° Gravel 0 ft / 0 m 0 ft / 0 m
23 75 ft / 23 m 3,061 ft / 933 m 246.55° 237.09° Gravel 0 ft / 0 m 0 ft / 0 m

Map

Weather


0- 5 10 15 20 25 30 35+ Temperature / ° C

Clouds and Precipitation
Forecast for 2017-12-12 00:00 UTC. Updated 2 hours ago

Ground ~20,000 ft ~40,000 ft Winds

METAR

PAMY 112323Z AUTO 35016KT 2 1/2SM -SN BR OVC010 M02/M03 A2929 RMK AO2 VIS 1 1/2V4 P0000 FZRANO

TAF

Not found

Frequencies

Recorded 123.90 MHz AWOS 3
Approach 124.50 MHz Anchorage ARTCC
Unicom 122.90 MHz CTAF
Warning: Do not use this data for real-world aviation or navigation. No guarantee of current accuracy is given.